createdAt,value
2023-06-03T00:00:28.432Z,101095.66
2023-06-03T00:02:55.426Z,101100.03
2023-06-03T00:05:22.741Z,101105.56
2023-06-03T00:07:50.127Z,101104.44
2023-06-03T00:10:17.304Z,101109.31
2023-06-03T00:12:49.846Z,101107.31
2023-06-03T00:15:17.104Z,101111.66
2023-06-03T00:17:43.969Z,101103.63
2023-06-03T00:20:11.238Z,101102.81
2023-06-03T00:22:38.533Z,101102.47
2023-06-03T00:25:08.380Z,101110.00
2023-06-03T00:27:36.031Z,101104.66
2023-06-03T00:30:04.035Z,101099.13
2023-06-03T00:32:35.055Z,101098.28
2023-06-03T00:35:04.343Z,101099.28
2023-06-03T00:37:36.228Z,101091.97
2023-06-03T00:40:10.756Z,101093.28
2023-06-03T00:42:37.379Z,101097.78
2023-06-03T00:45:04.299Z,101107.63
2023-06-03T00:47:31.094Z,101108.28
2023-06-03T00:49:58.994Z,101110.09
2023-06-03T00:52:28.894Z,101107.28
2023-06-03T00:54:55.668Z,101108.25
2023-06-03T00:57:23.800Z,101104.22
2023-06-03T00:59:50.628Z,101105.22
2023-06-03T01:02:45.456Z,101104.41
2023-06-03T01:05:13.494Z,101104.03
2023-06-03T01:08:20.064Z,101105.19
2023-06-03T01:11:10.094Z,101102.94
2023-06-03T01:13:46.702Z,101099.06
2023-06-03T01:16:14.238Z,101094.84
2023-06-03T01:18:41.877Z,101101.84
2023-06-03T01:21:08.677Z,101101.00
2023-06-03T01:23:35.601Z,101097.91
2023-06-03T01:26:05.682Z,101096.38
2023-06-03T01:28:36.522Z,101104.16
2023-06-03T01:31:04.678Z,101097.53
2023-06-03T01:33:32.245Z,101097.91
2023-06-03T01:36:01.897Z,101101.84
2023-06-03T01:38:28.881Z,101099.84
2023-06-03T01:40:59.260Z,101100.69
2023-06-03T01:43:26.031Z,101098.03
2023-06-03T01:45:52.774Z,101100.06
2023-06-03T01:48:19.453Z,101090.59
2023-06-03T01:50:46.184Z,101095.63
2023-06-03T01:53:16.183Z,101090.97
2023-06-03T01:55:45.097Z,101088.63
2023-06-03T01:58:12.703Z,101092.59
2023-06-03T02:00:45.444Z,101089.59
2023-06-03T02:03:12.151Z,101087.53
2023-06-03T02:05:38.860Z,101091.53
2023-06-03T02:08:08.817Z,101093.84
2023-06-03T02:10:36.184Z,101094.72
2023-06-03T02:13:05.386Z,101082.69
2023-06-03T02:15:31.976Z,101080.13
2023-06-03T02:18:00.667Z,101080.13
2023-06-03T02:20:27.510Z,101080.78
2023-06-03T02:22:55.015Z,101081.34
2023-06-03T02:25:21.647Z,101075.88
2023-06-03T02:27:48.610Z,101068.50
2023-06-03T02:30:15.592Z,101075.25
2023-06-03T02:32:42.875Z,101085.91
2023-06-03T02:35:09.859Z,101083.38
2023-06-03T02:37:40.065Z,101083.31
2023-06-03T02:40:07.605Z,101082.69
2023-06-03T02:42:34.231Z,101087.47
2023-06-03T02:45:01.237Z,101084.59
2023-06-03T02:47:27.877Z,101077.69
2023-06-03T02:50:06.469Z,101081.84
2023-06-03T02:52:34.814Z,101077.53
2023-06-03T02:55:02.482Z,101076.91
2023-06-03T02:57:29.239Z,101084.00
2023-06-03T02:59:57.023Z,101083.41
2023-06-03T03:02:25.787Z,101087.53
2023-06-03T03:04:52.405Z,101080.91
2023-06-03T03:07:21.669Z,101088.19
2023-06-03T03:09:48.553Z,101089.00
2023-06-03T03:12:15.630Z,101093.31
2023-06-03T03:14:44.942Z,101100.28
2023-06-03T03:17:17.656Z,101097.50
2023-06-03T03:19:44.466Z,101104.75
2023-06-03T03:22:11.753Z,101102.72
2023-06-03T03:24:39.241Z,101104.41
2023-06-03T03:27:06.176Z,101104.16
2023-06-03T03:29:35.508Z,101105.00
2023-06-03T03:32:08.918Z,101104.53
2023-06-03T03:34:39.275Z,101106.13
2023-06-03T03:37:08.525Z,101108.56
2023-06-03T03:39:39.130Z,101102.94
2023-06-03T03:42:06.418Z,101106.28
2023-06-03T03:44:36.820Z,101102.63
2023-06-03T03:47:04.767Z,101104.97
2023-06-03T03:49:38.230Z,101108.84
2023-06-03T03:52:11.901Z,101103.41
2023-06-03T03:54:41.549Z,101104.59
2023-06-03T03:57:13.800Z,101110.81
2023-06-03T03:59:45.752Z,101117.97
2023-06-03T04:02:12.976Z,101128.06
2023-06-03T04:04:46.031Z,101125.78
2023-06-03T04:07:18.122Z,101111.44
2023-06-03T04:09:45.610Z,101102.84
2023-06-03T04:12:40.959Z,101106.69
2023-06-03T04:15:10.264Z,101116.22
2023-06-03T04:17:39.121Z,101107.75
2023-06-03T04:20:10.441Z,101108.06
2023-06-03T04:22:37.312Z,101104.13
2023-06-03T04:25:12.505Z,101101.16
2023-06-03T04:27:48.338Z,101101.63
2023-06-03T04:30:16.892Z,101106.94
2023-06-03T04:32:43.671Z,101099.06
2023-06-03T04:35:10.636Z,101107.69
2023-06-03T04:37:40.754Z,101109.81
2023-06-03T04:40:11.041Z,101105.16
2023-06-03T04:42:42.198Z,101107.53
2023-06-03T04:45:10.262Z,101109.31
2023-06-03T04:47:43.098Z,101107.38
2023-06-03T04:50:12.304Z,101108.50
2023-06-03T04:52:40.098Z,101113.91
2023-06-03T04:55:09.837Z,101107.81
2023-06-03T04:57:44.626Z,101110.25
2023-06-03T05:00:11.609Z,101122.00
2023-06-03T05:02:40.161Z,101118.31
2023-06-03T05:05:07.264Z,101108.66
2023-06-03T05:07:37.125Z,101118.88
2023-06-03T05:10:04.688Z,101122.66
2023-06-03T05:12:33.829Z,101117.03
2023-06-03T05:15:00.543Z,101113.44
2023-06-03T05:17:32.605Z,101115.16
2023-06-03T05:19:59.300Z,101122.97
2023-06-03T05:22:26.016Z,101120.50
2023-06-03T05:24:52.683Z,101117.69
2023-06-03T05:27:19.318Z,101114.63
2023-06-03T05:29:49.264Z,101115.13
2023-06-03T05:32:16.067Z,101122.25
2023-06-03T05:34:42.665Z,101123.59
2023-06-03T05:37:10.148Z,101125.47
2023-06-03T05:39:37.450Z,101127.47
2023-06-03T05:42:07.597Z,101120.50
2023-06-03T05:44:34.273Z,101114.56
2023-06-03T05:47:01.031Z,101117.47
2023-06-03T05:49:27.991Z,101125.94
2023-06-03T05:51:54.710Z,101121.63
2023-06-03T05:54:26.910Z,101123.94
2023-06-03T05:56:53.682Z,101125.66
2023-06-03T05:59:20.709Z,101128.78
2023-06-03T06:01:47.873Z,101126.41
2023-06-03T06:04:14.990Z,101123.72
2023-06-03T06:06:45.834Z,101118.56
2023-06-03T06:09:12.542Z,101121.53
2023-06-03T06:11:39.906Z,101120.41
2023-06-03T06:14:07.159Z,101121.00
2023-06-03T06:16:35.496Z,101131.16
2023-06-03T06:19:04.972Z,101123.88
2023-06-03T06:21:33.235Z,101131.41
2023-06-03T06:24:01.135Z,101127.09
2023-06-03T06:26:30.661Z,101127.97
2023-06-03T06:28:58.537Z,101116.03
2023-06-03T06:31:25.646Z,101118.88
2023-06-03T06:33:54.494Z,101112.41
2023-06-03T06:36:30.865Z,101124.81
2023-06-03T06:38:59.544Z,101134.03
2023-06-03T06:41:28.486Z,101126.59
2023-06-03T06:43:57.932Z,101127.75
2023-06-03T06:46:25.782Z,101125.63
2023-06-03T06:48:53.202Z,101120.78
2023-06-03T06:51:21.582Z,101124.22
2023-06-03T06:53:53.891Z,101121.59
2023-06-03T06:56:20.746Z,101124.22
2023-06-03T06:58:54.571Z,101124.78
2023-06-03T07:01:26.616Z,101124.81
2023-06-03T07:03:55.770Z,101125.97
2023-06-03T07:06:22.737Z,101123.50
2023-06-03T07:08:54.486Z,101121.44
2023-06-03T07:11:24.046Z,101126.16
2023-06-03T07:13:57.307Z,101128.44
2023-06-03T07:16:26.786Z,101111.94
2023-06-03T07:18:54.957Z,101116.78
2023-06-03T07:21:28.189Z,101120.16
2023-06-03T07:23:58.876Z,101124.97
2023-06-03T07:26:28.685Z,101123.91
2023-06-03T07:28:59.075Z,101128.34
2023-06-03T07:31:28.709Z,101129.34
2023-06-03T07:33:56.623Z,101125.97
2023-06-03T07:36:31.270Z,101132.75
2023-06-03T07:39:06.867Z,101120.78
2023-06-03T07:41:52.072Z,101141.19
2023-06-03T07:44:47.732Z,101128.44
2023-06-03T07:47:15.843Z,101126.31
2023-06-03T07:49:46.968Z,101124.56
2023-06-03T07:52:17.836Z,101134.81
2023-06-03T07:54:44.493Z,101124.94
2023-06-03T07:57:13.224Z,101125.88
2023-06-03T07:59:39.885Z,101128.44
2023-06-03T08:02:10.653Z,101126.28
2023-06-03T08:04:45.562Z,101128.06
2023-06-03T08:07:13.313Z,101133.97
2023-06-03T08:09:46.438Z,101139.31
2023-06-03T08:12:13.214Z,101130.84
2023-06-03T08:14:40.960Z,101136.84
2023-06-03T08:17:11.328Z,101129.00
2023-06-03T08:19:46.353Z,101127.38
2023-06-03T08:22:45.348Z,101130.88
2023-06-03T08:25:12.814Z,101132.00
2023-06-03T08:27:39.506Z,101133.06
2023-06-03T08:30:06.848Z,101125.72
2023-06-03T08:32:36.276Z,101133.00
2023-06-03T08:35:03.757Z,101125.97
2023-06-03T08:37:33.949Z,101130.63
2023-06-03T08:40:12.227Z,101127.72
2023-06-03T08:42:45.840Z,101118.84
2023-06-03T08:45:16.925Z,101116.72
2023-06-03T08:48:01.997Z,101117.75
2023-06-03T08:50:29.581Z,101125.91
2023-06-03T08:52:57.071Z,101115.69
2023-06-03T08:55:23.829Z,101122.44
2023-06-03T08:58:20.425Z,101112.59
2023-06-03T09:00:48.387Z,101120.78
2023-06-03T09:03:17.803Z,101112.78
2023-06-03T09:05:47.759Z,101118.16
2023-06-03T09:08:15.869Z,101121.84
2023-06-03T09:10:42.972Z,101113.53
2023-06-03T09:13:09.636Z,101126.78
2023-06-03T09:15:37.466Z,101126.34
2023-06-03T09:18:04.423Z,101118.06
2023-06-03T09:20:31.155Z,101109.06
2023-06-03T09:22:57.917Z,101115.25
2023-06-03T09:25:24.753Z,101113.53
2023-06-03T09:27:52.076Z,101116.88
2023-06-03T09:30:23.631Z,101113.94
2023-06-03T09:32:50.394Z,101111.41
2023-06-03T09:35:17.223Z,101119.50
2023-06-03T09:37:58.979Z,101124.56
2023-06-03T09:40:30.784Z,101115.75
2023-06-03T09:43:01.018Z,101113.09
2023-06-03T09:45:27.615Z,101112.34
2023-06-03T09:47:54.895Z,101119.66
2023-06-03T09:50:22.826Z,101112.00
2023-06-03T09:52:49.496Z,101111.53
2023-06-03T09:55:18.633Z,101113.81
2023-06-03T09:58:07.726Z,101115.06
2023-06-03T10:00:48.278Z,101108.84
2023-06-03T10:03:15.217Z,101110.19
2023-06-03T10:05:42.464Z,101108.84
2023-06-03T10:08:09.255Z,101108.41
2023-06-03T10:10:40.429Z,101115.41
2023-06-03T10:13:22.392Z,101106.38
2023-06-03T10:15:54.720Z,101100.69
2023-06-03T10:18:38.608Z,101100.22
2023-06-03T10:21:12.684Z,101098.72
2023-06-03T10:23:41.604Z,101105.19
2023-06-03T10:26:09.307Z,101097.34
2023-06-03T10:28:39.501Z,101098.31
2023-06-03T10:31:11.740Z,101097.84
2023-06-03T10:33:39.953Z,101091.72
2023-06-03T10:36:07.863Z,101091.91
2023-06-03T10:38:34.580Z,101097.44
2023-06-03T10:41:02.430Z,101099.38
2023-06-03T10:43:32.433Z,101098.44
2023-06-03T10:45:59.662Z,101101.75
2023-06-03T10:48:27.031Z,101083.44
2023-06-03T10:51:16.247Z,101097.00
2023-06-03T10:54:05.605Z,101093.22
2023-06-03T10:56:46.037Z,101101.50
2023-06-03T10:59:17.502Z,101088.13
2023-06-03T11:02:04.777Z,101081.75
2023-06-03T11:04:40.320Z,101086.47
2023-06-03T11:07:45.370Z,101078.81
2023-06-03T11:10:43.028Z,101077.34
2023-06-03T11:13:12.246Z,101084.59
2023-06-03T11:16:11.385Z,101076.94
2023-06-03T11:18:38.129Z,101067.44
2023-06-03T11:21:05.069Z,101066.41
2023-06-03T11:23:50.094Z,101065.81
2023-06-03T11:26:36.948Z,101066.63
2023-06-03T11:29:07.492Z,101063.38
2023-06-03T11:31:37.269Z,101057.69
2023-06-03T11:34:19.183Z,101063.84
2023-06-03T11:36:47.812Z,101058.53
2023-06-03T11:39:16.953Z,101066.28
2023-06-03T11:42:12.109Z,101072.78
2023-06-03T11:44:40.388Z,101069.13
2023-06-03T11:47:07.365Z,101066.53
2023-06-03T11:49:36.140Z,101069.25
2023-06-03T11:52:03.113Z,101065.81
2023-06-03T11:54:31.104Z,101062.28
2023-06-03T11:57:03.322Z,101065.59
2023-06-03T11:59:45.332Z,101064.28
2023-06-03T12:02:12.193Z,101064.53
2023-06-03T12:04:39.085Z,101057.09
2023-06-03T12:07:13.529Z,101053.44
2023-06-03T12:09:40.248Z,101058.38
2023-06-03T12:12:09.042Z,101055.69
2023-06-03T12:14:39.352Z,101045.31
2023-06-03T12:17:14.507Z,101045.56
2023-06-03T12:19:54.290Z,101047.69
2023-06-03T12:22:36.773Z,101044.84
2023-06-03T12:25:06.904Z,101039.69
2023-06-03T12:27:35.432Z,101048.41
2023-06-03T12:30:07.682Z,101046.13
2023-06-03T12:32:58.303Z,101051.47
2023-06-03T12:35:30.719Z,101052.00
2023-06-03T12:38:07.566Z,101049.06
2023-06-03T12:40:35.912Z,101051.00
2023-06-03T12:43:05.771Z,101051.84
2023-06-03T12:45:32.706Z,101047.31
2023-06-03T12:48:00.494Z,101050.25
2023-06-03T12:50:34.450Z,101055.47
2023-06-03T12:55:56.677Z,101055.00
2023-06-03T12:58:26.012Z,101044.97
2023-06-03T13:01:00.358Z,101043.75
2023-06-03T13:03:27.174Z,101031.13
2023-06-03T13:05:56.205Z,101034.44
2023-06-03T13:08:30.266Z,101037.78
2023-06-03T13:10:56.902Z,101040.72
2023-06-03T13:13:25.473Z,101034.66
2023-06-03T13:15:59.070Z,101038.88
2023-06-03T13:18:25.955Z,101037.81
2023-06-03T13:20:54.525Z,101033.91
2023-06-03T13:23:30.243Z,101030.38
2023-06-03T13:25:57.631Z,101022.00
2023-06-03T13:28:27.619Z,101026.78
2023-06-03T13:30:56.540Z,101010.53
2023-06-03T13:33:23.285Z,101010.44
2023-06-03T13:35:54.450Z,101011.97
2023-06-03T13:38:32.695Z,101005.34
2023-06-03T13:40:59.334Z,100998.50
2023-06-03T13:43:25.930Z,101006.50
2023-06-03T13:45:58.620Z,101004.94
2023-06-03T13:48:28.154Z,101005.31
2023-06-03T13:50:58.139Z,101000.03
2023-06-03T13:53:32.813Z,100999.78
2023-06-03T13:55:59.543Z,100998.59
2023-06-03T13:58:26.238Z,101001.91
2023-06-03T14:01:03.015Z,100988.34
2023-06-03T14:03:29.783Z,100990.56
2023-06-03T14:05:56.442Z,100988.06
2023-06-03T14:08:26.516Z,100986.78
2023-06-03T14:10:55.645Z,100984.44
2023-06-03T14:13:27.665Z,100978.06
2023-06-03T14:16:03.361Z,100984.66
2023-06-03T14:18:30.209Z,100979.53
2023-06-03T14:20:56.867Z,100980.59
2023-06-03T14:23:26.310Z,100972.84
2023-06-03T14:26:04.515Z,100983.31
2023-06-03T14:28:31.438Z,100974.72
2023-06-03T14:31:04.038Z,100978.38
2023-06-03T14:33:30.842Z,100964.81
2023-06-03T14:35:57.544Z,100969.06
2023-06-03T14:38:26.582Z,100973.09
2023-06-03T14:41:01.173Z,100978.84
2023-06-03T14:43:27.829Z,100964.59
2023-06-03T14:45:56.817Z,100959.59
2023-06-03T14:48:27.592Z,100954.63
2023-06-03T14:50:55.261Z,100960.41
2023-06-03T14:53:29.507Z,100952.31
2023-06-03T14:55:59.179Z,100953.50
2023-06-03T14:58:25.999Z,100941.78
2023-06-03T15:01:00.345Z,100941.09
2023-06-03T15:03:26.980Z,100951.03
2023-06-03T15:05:56.194Z,100938.44
2023-06-03T15:08:24.923Z,100937.19
2023-06-03T15:10:59.938Z,100946.53
2023-06-03T15:13:34.156Z,100947.50
2023-06-03T15:16:00.856Z,100940.13
2023-06-03T15:18:27.602Z,100938.22
2023-06-03T15:20:59.531Z,100938.13
2023-06-03T15:23:26.258Z,100937.28
2023-06-03T15:25:53.024Z,100930.97
2023-06-03T15:28:19.617Z,100932.69
2023-06-03T15:30:46.212Z,100932.03
2023-06-03T15:33:12.865Z,100926.50
2023-06-03T15:35:39.526Z,100915.06
2023-06-03T15:38:06.184Z,100921.72
2023-06-03T15:40:32.866Z,100920.00
2023-06-03T15:42:59.479Z,100924.19
2023-06-03T15:45:26.307Z,100919.53
2023-06-03T15:48:02.117Z,100903.50
2023-06-03T15:50:28.788Z,100902.28
2023-06-03T15:52:56.061Z,100908.63
2023-06-03T15:55:22.738Z,100903.84
2023-06-03T15:57:49.357Z,100909.53
2023-06-03T16:00:16.311Z,100910.03
2023-06-03T16:02:43.066Z,100907.06
2023-06-03T16:05:09.804Z,100913.47
2023-06-03T16:07:36.422Z,100898.56
2023-06-03T16:10:06.306Z,100898.41
2023-06-03T16:12:35.091Z,100893.63
2023-06-03T16:15:01.991Z,100900.88
2023-06-03T16:17:28.825Z,100900.56
2023-06-03T16:19:55.626Z,100893.06
2023-06-03T16:22:29.841Z,100895.69
2023-06-03T16:24:57.063Z,100895.53
2023-06-03T16:27:23.755Z,100897.56
2023-06-03T16:29:50.450Z,100891.75
2023-06-03T16:32:17.292Z,100890.09
2023-06-03T16:34:47.056Z,100894.13
2023-06-03T16:37:15.320Z,100897.09
2023-06-03T16:39:41.983Z,100894.13
2023-06-03T16:42:08.817Z,100895.84
2023-06-03T16:44:35.430Z,100898.66
2023-06-03T16:47:02.117Z,100893.56
2023-06-03T16:49:28.677Z,100898.34
2023-06-03T16:51:55.375Z,100894.28
2023-06-03T16:54:22.132Z,100903.53
2023-06-03T16:56:48.805Z,100899.06
2023-06-03T16:59:20.330Z,100900.47
2023-06-03T17:01:47.179Z,100900.22
2023-06-03T17:04:16.173Z,100895.75
2023-06-03T17:06:50.984Z,100893.38
2023-06-03T17:09:17.703Z,100886.91
2023-06-03T17:11:46.734Z,100889.59
2023-06-03T17:14:14.465Z,100884.81
2023-06-03T17:16:43.509Z,100890.75
2023-06-03T17:19:10.996Z,100885.81
2023-06-03T17:21:37.825Z,100877.75
2023-06-03T17:24:04.475Z,100881.53
2023-06-03T17:26:31.296Z,100880.03
2023-06-03T17:28:59.473Z,100879.94
2023-06-03T17:31:26.220Z,100890.38
2023-06-03T17:33:52.982Z,100882.72
2023-06-03T17:36:19.691Z,100878.78
2023-06-03T17:38:46.411Z,100882.09
2023-06-03T17:41:13.062Z,100879.34
2023-06-03T17:43:44.166Z,100884.09
2023-06-03T17:46:11.442Z,100884.66
2023-06-03T17:48:38.343Z,100885.19
2023-06-03T17:51:05.433Z,100885.25
2023-06-03T17:53:32.331Z,100888.22
2023-06-03T17:56:04.823Z,100888.91
2023-06-03T17:58:31.754Z,100887.97
2023-06-03T18:00:58.408Z,100886.59
2023-06-03T18:03:33.564Z,100887.28
2023-06-03T18:06:00.180Z,100882.84
2023-06-03T18:08:27.429Z,100877.41
2023-06-03T18:10:54.083Z,100881.19
2023-06-03T18:13:27.138Z,100880.28
2023-06-03T18:16:01.475Z,100877.38
2023-06-03T18:18:28.352Z,100882.09
2023-06-03T18:20:57.278Z,100883.38
2023-06-03T18:23:27.220Z,100885.22
2023-06-03T18:25:55.319Z,100885.06
2023-06-03T18:28:28.489Z,100883.91
2023-06-03T18:30:55.196Z,100891.41
2023-06-03T18:33:27.877Z,100892.06
2023-06-03T18:35:54.627Z,100898.47
2023-06-03T18:38:28.693Z,100897.06
2023-06-03T18:40:56.760Z,100898.84
2023-06-03T18:43:30.813Z,100896.50
2023-06-03T18:45:57.490Z,100899.75
2023-06-03T18:48:24.159Z,100892.50
2023-06-03T18:50:50.830Z,100894.47
2023-06-03T18:53:17.768Z,100903.53
2023-06-03T18:55:44.375Z,100898.84
2023-06-03T18:58:16.158Z,100897.00
2023-06-03T19:00:42.810Z,100898.53
2023-06-03T19:03:25.877Z,100900.38
2023-06-03T19:05:54.704Z,100900.13
2023-06-03T19:08:22.842Z,100900.91
2023-06-03T19:10:57.480Z,100899.22
2023-06-03T19:13:24.313Z,100910.19
2023-06-03T19:16:00.147Z,100907.75
2023-06-03T19:18:28.965Z,100906.94
2023-06-03T19:20:55.725Z,100907.44
2023-06-03T19:23:22.409Z,100901.38
2023-06-03T19:25:49.194Z,100910.97
2023-06-03T19:28:16.087Z,100912.31
2023-06-03T19:30:42.729Z,100913.00
2023-06-03T19:33:09.777Z,100909.72
2023-06-03T19:35:36.477Z,100910.78
2023-06-03T19:38:03.170Z,100913.47
2023-06-03T19:40:32.329Z,100919.28
2023-06-03T19:42:59.065Z,100913.47
2023-06-03T19:45:26.115Z,100912.22
2023-06-03T19:47:59.067Z,100917.78
2023-06-03T19:50:29.704Z,100921.06
2023-06-03T19:52:56.768Z,100927.03
2023-06-03T19:55:23.617Z,100921.00
2023-06-03T19:57:50.627Z,100931.31
2023-06-03T20:00:18.269Z,100927.38
2023-06-03T20:02:45.169Z,100940.59
2023-06-03T20:05:15.705Z,100938.09
2023-06-03T20:07:42.897Z,100942.84
2023-06-03T20:10:10.110Z,100947.56
2023-06-03T20:12:44.258Z,100949.19
2023-06-03T20:15:11.543Z,100948.28
2023-06-03T20:17:39.691Z,100939.97
2023-06-03T20:20:12.859Z,100947.78
2023-06-03T20:22:39.498Z,100941.00
2023-06-03T20:25:06.788Z,100949.78
2023-06-03T20:27:33.563Z,100944.31
2023-06-03T20:30:00.433Z,100949.09
2023-06-03T20:32:27.197Z,100943.84
2023-06-03T20:34:56.737Z,100953.19
2023-06-03T20:37:23.622Z,100954.31
2023-06-03T20:39:50.373Z,100960.19
2023-06-03T20:42:17.480Z,100953.50
2023-06-03T20:44:44.343Z,100956.72
2023-06-03T20:47:15.200Z,100953.34
2023-06-03T20:49:42.253Z,100956.22
2023-06-03T20:52:11.750Z,100965.06
2023-06-03T20:54:38.373Z,100952.59
2023-06-03T20:57:05.578Z,100956.88
2023-06-03T20:59:33.941Z,100960.41
2023-06-03T21:02:00.920Z,100960.59
2023-06-03T21:04:27.620Z,100965.03
2023-06-03T21:06:54.262Z,100967.19
2023-06-03T21:09:20.966Z,100962.84
2023-06-03T21:11:56.458Z,100960.72
2023-06-03T21:14:23.169Z,100962.78
2023-06-03T21:16:49.808Z,100965.75
2023-06-03T21:19:16.543Z,100964.31
2023-06-03T21:21:44.367Z,100955.34
2023-06-03T21:24:11.951Z,100967.09
2023-06-03T21:26:39.056Z,100968.94
2023-06-03T21:29:06.243Z,100963.97
2023-06-03T21:31:33.772Z,100956.47
2023-06-03T21:34:00.467Z,100957.06
2023-06-03T21:36:27.186Z,100959.69
2023-06-03T21:38:53.833Z,100950.03
2023-06-03T21:41:21.116Z,100954.31
2023-06-03T21:43:48.885Z,100951.91
2023-06-03T21:46:22.272Z,100962.19
2023-06-03T21:48:49.044Z,100961.44
2023-06-03T21:51:15.683Z,100962.25
2023-06-03T21:53:42.311Z,100957.91
2023-06-03T21:56:08.962Z,100963.38
2023-06-03T21:58:40.537Z,100961.63
2023-06-03T22:01:07.872Z,100953.97
2023-06-03T22:03:34.910Z,100953.22
2023-06-03T22:06:01.585Z,100956.28
2023-06-03T22:08:28.245Z,100968.28
2023-06-03T22:10:59.623Z,100963.94
2023-06-03T22:13:28.549Z,100969.66
2023-06-03T22:15:57.520Z,100977.03
2023-06-03T22:18:26.148Z,100973.06
2023-06-03T22:20:58.705Z,100977.03
2023-06-03T22:23:27.920Z,100972.59
2023-06-03T22:25:57.295Z,100966.44
2023-06-03T22:28:26.602Z,100965.78
2023-06-03T22:30:53.394Z,100966.03
2023-06-03T22:33:20.645Z,100964.47
2023-06-03T22:35:47.898Z,100958.75
2023-06-03T22:38:14.596Z,100965.56
2023-06-03T22:40:53.429Z,100963.34
2023-06-03T22:43:21.385Z,100963.19
2023-06-03T22:45:48.834Z,100959.94
2023-06-03T22:48:15.682Z,100963.53
2023-06-03T22:50:42.329Z,100966.22
2023-06-03T22:53:08.987Z,100968.41
2023-06-03T22:55:35.666Z,100962.13
2023-06-03T22:58:02.335Z,100964.03
2023-06-03T23:00:29.050Z,100961.63
2023-06-03T23:02:56.038Z,100966.78
2023-06-03T23:05:23.220Z,100964.94
2023-06-03T23:07:50.170Z,100969.50
2023-06-03T23:10:19.466Z,100973.69
2023-06-03T23:12:46.232Z,100970.91
2023-06-03T23:15:12.986Z,100980.91
2023-06-03T23:17:40.424Z,100984.94
2023-06-03T23:20:28.105Z,100993.94
2023-06-03T23:22:54.980Z,100976.91
2023-06-03T23:25:21.817Z,100975.34
2023-06-03T23:27:48.803Z,100974.19
2023-06-03T23:30:15.944Z,100981.00
2023-06-03T23:32:43.721Z,100981.50
2023-06-03T23:35:11.374Z,100979.69
2023-06-03T23:37:41.330Z,100981.22
2023-06-03T23:40:09.299Z,100976.81
2023-06-03T23:42:38.695Z,100975.75
2023-06-03T23:45:07.989Z,100983.44
2023-06-03T23:47:36.151Z,100981.94
2023-06-03T23:50:02.915Z,100984.84
2023-06-03T23:52:32.095Z,100978.19
2023-06-03T23:54:59.745Z,100977.91
2023-06-03T23:57:27.456Z,100973.84
2023-06-03T23:59:54.325Z,100977.31
